createdAt,value
2024-02-13T00:00:42.600Z,8.10
2024-02-13T00:03:10.886Z,8.10
2024-02-13T00:05:40.459Z,8.00
2024-02-13T00:08:08.376Z,8.00
2024-02-13T00:10:37.323Z,8.00
2024-02-13T00:13:05.655Z,8.00
2024-02-13T00:15:32.622Z,7.80
2024-02-13T00:18:04.649Z,8.00
2024-02-13T00:20:31.983Z,8.00
2024-02-13T00:23:00.615Z,8.00
2024-02-13T00:25:29.703Z,8.00
2024-02-13T00:27:56.921Z,8.00
2024-02-13T00:30:24.815Z,8.10
2024-02-13T00:32:51.767Z,8.00
2024-02-13T00:35:19.125Z,7.90
2024-02-13T00:37:47.782Z,7.90
2024-02-13T00:40:14.969Z,8.00
2024-02-13T00:42:41.905Z,7.90
2024-02-13T00:45:12.973Z,7.90
2024-02-13T00:47:42.064Z,7.80
2024-02-13T00:50:09.943Z,7.90
2024-02-13T00:52:41.269Z,7.90
2024-02-13T00:55:09.085Z,7.90
2024-02-13T00:57:37.026Z,7.90
2024-02-13T01:00:12.151Z,7.90
2024-02-13T01:02:40.012Z,7.80
2024-02-13T01:05:10.527Z,7.80
2024-02-13T01:10:07.767Z,7.50
2024-02-13T01:15:02.533Z,7.80
2024-02-13T01:17:30.234Z,7.80
2024-02-13T01:19:58.853Z,7.70
2024-02-13T01:22:25.708Z,7.70
2024-02-13T01:24:52.982Z,7.70
2024-02-13T01:27:20.433Z,7.50
2024-02-13T01:29:48.968Z,7.70
2024-02-13T01:34:45.260Z,7.70
2024-02-13T01:37:12.587Z,7.80
2024-02-13T01:39:39.892Z,7.50
2024-02-13T01:42:06.837Z,7.50
2024-02-13T01:44:35.876Z,7.60
2024-02-13T01:47:05.240Z,7.50
2024-02-13T01:49:33.276Z,7.50
2024-02-13T01:52:02.017Z,7.50
2024-02-13T01:54:30.200Z,7.50
2024-02-13T01:56:57.972Z,7.50
2024-02-13T01:59:27.113Z,7.40
2024-02-13T02:04:23.756Z,7.50
2024-02-13T02:06:50.783Z,7.20
2024-02-13T02:09:17.821Z,7.40
2024-02-13T02:11:44.878Z,7.50
2024-02-13T02:14:12.065Z,7.40
2024-02-13T02:16:39.353Z,7.40
2024-02-13T02:19:06.847Z,7.40
2024-02-13T02:21:34.011Z,8.30
2024-02-13T02:24:01.333Z,7.40
2024-02-13T02:26:28.484Z,7.30
2024-02-13T02:28:55.678Z,7.40
2024-02-13T02:31:22.637Z,7.40
2024-02-13T02:33:49.612Z,7.30
2024-02-13T02:36:16.540Z,7.30
2024-02-13T02:38:43.670Z,7.20
2024-02-13T02:41:10.849Z,7.10
2024-02-13T02:43:38.897Z,7.30
2024-02-13T02:46:06.417Z,7.20
2024-02-13T02:48:33.705Z,7.20
2024-02-13T02:51:00.933Z,7.20
2024-02-13T02:53:28.053Z,7.20
2024-02-13T02:55:55.651Z,7.20
2024-02-13T02:58:22.997Z,7.10
2024-02-13T03:00:50.551Z,7.20
2024-02-13T03:03:22.681Z,7.20
2024-02-13T03:05:52.678Z,7.20
2024-02-13T03:08:20.238Z,7.10
2024-02-13T03:10:47.162Z,7.00
2024-02-13T03:13:15.053Z,7.00
2024-02-13T03:15:42.058Z,7.00
2024-02-13T03:18:11.234Z,7.00
2024-02-13T03:20:38.371Z,6.70
2024-02-13T03:23:06.399Z,7.20
2024-02-13T03:25:33.411Z,7.00
2024-02-13T03:28:00.603Z,7.00
2024-02-13T03:32:55.639Z,6.90
2024-02-13T03:35:22.774Z,6.90
2024-02-13T03:40:17.474Z,6.90
2024-02-13T03:42:47.512Z,7.00
2024-02-13T03:45:14.699Z,6.80
2024-02-13T03:50:09.542Z,7.10
2024-02-13T03:52:38.625Z,7.00
2024-02-13T03:55:07.059Z,6.60
2024-02-13T03:57:34.234Z,6.90
2024-02-13T04:00:01.667Z,7.00
2024-02-13T04:02:31.517Z,7.00
2024-02-13T04:04:58.660Z,7.10
2024-02-13T04:07:25.520Z,6.90
2024-02-13T04:12:19.672Z,6.80
2024-02-13T04:14:46.758Z,7.20
2024-02-13T04:17:14.013Z,6.80
2024-02-13T04:19:40.998Z,6.90
2024-02-13T04:22:09.710Z,6.80
2024-02-13T04:24:36.587Z,6.80
2024-02-13T04:27:06.690Z,6.90
2024-02-13T04:34:31.211Z,6.80
2024-02-13T04:36:59.194Z,6.80
2024-02-13T04:39:26.274Z,6.60
2024-02-13T04:41:54.328Z,6.50
2024-02-13T04:44:21.451Z,6.00
2024-02-13T04:46:49.787Z,6.40
2024-02-13T04:49:16.707Z,6.70
2024-02-13T04:51:44.518Z,6.30
2024-02-13T04:54:11.582Z,6.50
2024-02-13T04:56:38.807Z,6.60
2024-02-13T04:59:08.770Z,6.40
2024-02-13T05:01:40.803Z,6.50
2024-02-13T05:04:17.030Z,6.60
2024-02-13T05:07:03.277Z,6.40
2024-02-13T05:09:30.388Z,6.50
2024-02-13T05:11:58.456Z,6.40
2024-02-13T05:14:26.575Z,6.40
2024-02-13T05:16:53.989Z,6.90
2024-02-13T05:19:22.426Z,6.40
2024-02-13T05:21:51.880Z,6.20
2024-02-13T05:24:19.279Z,6.60
2024-02-13T05:26:46.274Z,6.40
2024-02-13T05:29:13.414Z,6.30
2024-02-13T05:34:07.836Z,6.30
2024-02-13T05:36:35.129Z,6.30
2024-02-13T05:39:03.946Z,6.40
2024-02-13T05:41:30.906Z,6.30
2024-02-13T05:43:57.826Z,6.30
2024-02-13T05:46:25.569Z,6.40
2024-02-13T05:48:55.631Z,6.00
2024-02-13T05:51:22.730Z,6.40
2024-02-13T05:56:26.564Z,6.40
2024-02-13T05:58:57.184Z,6.40
2024-02-13T06:01:26.201Z,6.30
2024-02-13T06:03:57.071Z,6.30
2024-02-13T06:06:24.755Z,6.40
2024-02-13T06:08:55.757Z,6.40
2024-02-13T06:11:24.814Z,6.40
2024-02-13T06:13:52.201Z,6.40
2024-02-13T06:16:19.224Z,6.40
2024-02-13T06:18:48.372Z,6.40
2024-02-13T06:21:21.596Z,6.40
2024-02-13T06:23:50.683Z,6.30
2024-02-13T06:26:17.679Z,6.40
2024-02-13T06:28:44.837Z,6.40
2024-02-13T06:31:12.082Z,6.40
2024-02-13T06:33:40.427Z,6.50
2024-02-13T06:36:07.788Z,6.40
2024-02-13T06:38:36.535Z,6.60
2024-02-13T06:41:06.829Z,6.40
2024-02-13T06:43:34.762Z,6.70
2024-02-13T06:46:04.880Z,6.40
2024-02-13T06:48:32.312Z,6.40
2024-02-13T06:51:00.436Z,6.50
2024-02-13T06:53:28.284Z,6.60
2024-02-13T06:55:55.407Z,6.50
2024-02-13T06:58:22.236Z,6.00
2024-02-13T07:00:49.215Z,6.40
2024-02-13T07:03:16.191Z,6.40
2024-02-13T07:05:43.154Z,6.50
2024-02-13T07:08:10.108Z,6.50
2024-02-13T07:13:05.122Z,6.50
2024-02-13T07:15:31.948Z,6.50
2024-02-13T07:18:01.317Z,6.60
2024-02-13T07:20:29.388Z,6.60
2024-02-13T07:22:56.644Z,6.60
2024-02-13T07:25:23.656Z,6.60
2024-02-13T07:27:50.654Z,6.60
2024-02-13T07:35:16.245Z,6.70
2024-02-13T07:37:43.574Z,5.70
2024-02-13T07:40:11.288Z,6.60
2024-02-13T07:47:34.940Z,6.60
2024-02-13T07:50:01.839Z,6.60
2024-02-13T07:52:28.802Z,6.70
2024-02-13T07:54:55.743Z,6.60
2024-02-13T07:57:22.771Z,6.80
2024-02-13T07:59:56.315Z,6.60
2024-02-13T08:02:24.742Z,6.60
2024-02-13T08:04:52.948Z,6.70
2024-02-13T08:07:20.103Z,6.50
2024-02-13T08:09:47.145Z,6.70
2024-02-13T08:12:14.248Z,7.60
2024-02-13T08:19:41.810Z,6.90
2024-02-13T08:22:09.469Z,6.80
2024-02-13T08:24:36.984Z,7.00
2024-02-13T08:27:04.528Z,6.90
2024-02-13T08:39:23.579Z,7.30
2024-02-13T08:41:50.691Z,7.30
2024-02-13T08:46:47.287Z,7.20
2024-02-13T08:51:42.507Z,7.10
2024-02-13T08:56:41.045Z,7.20
2024-02-13T08:59:09.289Z,7.20
2024-02-13T09:04:04.117Z,7.30
2024-02-13T09:06:33.531Z,7.20
2024-02-13T09:11:32.547Z,7.50
2024-02-13T09:13:59.698Z,7.30
2024-02-13T09:16:26.940Z,7.50
2024-02-13T09:18:57.535Z,7.50
2024-02-13T09:21:25.540Z,7.50
2024-02-13T09:23:53.020Z,7.50
2024-02-13T09:26:20.246Z,7.50
2024-02-13T09:28:47.164Z,7.50
2024-02-13T09:31:15.247Z,7.50
2024-02-13T09:33:43.117Z,7.50
2024-02-13T09:36:15.487Z,7.60
2024-02-13T09:38:43.363Z,7.60
2024-02-13T09:41:11.832Z,7.40
2024-02-13T09:46:17.867Z,7.60
2024-02-13T09:48:49.383Z,7.60
2024-02-13T09:51:21.409Z,7.60
2024-02-13T09:53:49.420Z,7.80
2024-02-13T09:56:17.182Z,7.90
2024-02-13T09:58:46.437Z,7.80
2024-02-13T10:03:40.775Z,7.80
2024-02-13T10:06:07.776Z,7.70
2024-02-13T10:08:39.047Z,7.70
2024-02-13T10:11:10.252Z,8.00
2024-02-13T10:13:46.711Z,7.80
2024-02-13T10:16:27.608Z,7.90
2024-02-13T10:19:03.112Z,7.80
2024-02-13T10:24:13.278Z,7.80
2024-02-13T10:29:08.943Z,7.90
2024-02-13T10:31:36.764Z,7.80
2024-02-13T10:34:08.911Z,7.90
2024-02-13T10:36:37.760Z,8.10
2024-02-13T10:39:10.210Z,7.80
2024-02-13T10:41:41.303Z,7.80
2024-02-13T10:44:14.553Z,7.90
2024-02-13T10:46:43.478Z,7.90
2024-02-13T10:49:51.215Z,7.90
2024-02-13T10:57:18.310Z,7.90
2024-02-13T10:59:48.559Z,8.10
2024-02-13T11:02:19.125Z,8.50
2024-02-13T11:04:48.738Z,8.20
2024-02-13T11:07:18.097Z,8.10
2024-02-13T11:12:14.244Z,8.00
2024-02-13T11:19:46.031Z,8.10
2024-02-13T11:22:16.387Z,8.00
2024-02-13T11:24:52.743Z,7.90
2024-02-13T11:27:30.977Z,7.70
2024-02-13T11:30:01.114Z,7.70
2024-02-13T11:32:33.431Z,7.80
2024-02-13T11:35:01.069Z,6.30
2024-02-13T11:37:29.129Z,7.70
2024-02-13T11:39:59.117Z,7.70
2024-02-13T11:42:33.804Z,7.70
2024-02-13T11:45:04.995Z,7.70
2024-02-13T11:47:32.606Z,7.70
2024-02-13T11:50:00.386Z,7.70
2024-02-13T11:54:54.740Z,7.50
2024-02-13T11:57:26.550Z,5.70
2024-02-13T12:00:01.594Z,7.30
2024-02-13T12:02:30.833Z,7.10
2024-02-13T12:04:57.615Z,7.10
2024-02-13T12:07:24.448Z,6.90
2024-02-13T12:12:21.438Z,6.80
2024-02-13T12:17:18.721Z,6.70
2024-02-13T12:19:47.622Z,6.70
2024-02-13T12:22:17.911Z,6.70
2024-02-13T12:24:46.680Z,6.80
2024-02-13T12:27:16.486Z,6.80
2024-02-13T12:29:44.592Z,6.90
2024-02-13T12:32:19.306Z,7.00
2024-02-13T12:34:51.862Z,7.10
2024-02-13T12:39:48.206Z,7.40
2024-02-13T12:44:48.527Z,8.00
2024-02-13T12:47:18.663Z,8.20
2024-02-13T12:54:48.604Z,8.10
2024-02-13T12:57:16.187Z,8.10
2024-02-13T12:59:45.076Z,8.00
2024-02-13T13:04:42.756Z,7.70
2024-02-13T13:07:10.422Z,7.90
2024-02-13T13:09:39.759Z,8.00
2024-02-13T13:12:09.700Z,7.80
2024-02-13T13:14:39.429Z,7.60
2024-02-13T13:19:36.015Z,7.40
2024-02-13T13:24:33.149Z,7.10
2024-02-13T13:27:00.074Z,7.20
2024-02-13T13:34:24.483Z,7.10
2024-02-13T13:36:52.249Z,7.10
2024-02-13T13:39:19.168Z,7.40
2024-02-13T13:49:10.536Z,7.30
2024-02-13T13:51:40.285Z,7.10
2024-02-13T13:54:07.701Z,7.20
2024-02-13T13:56:34.695Z,7.30
2024-02-13T13:59:01.536Z,7.40
2024-02-13T14:01:28.549Z,7.60
2024-02-13T14:06:24.143Z,7.70
2024-02-13T14:08:51.257Z,7.70
2024-02-13T14:16:16.341Z,7.60
2024-02-13T14:26:06.098Z,7.30
2024-02-13T14:28:33.202Z,7.20
2024-02-13T14:33:28.633Z,7.20
2024-02-13T14:43:18.801Z,7.10
2024-02-13T14:45:47.153Z,7.20
2024-02-13T14:50:44.444Z,7.00
2024-02-13T15:00:56.352Z,7.00
2024-02-13T15:03:25.133Z,6.90
2024-02-13T15:08:23.016Z,6.90
2024-02-13T15:18:16.793Z,6.80
2024-02-13T15:20:44.514Z,7.30
2024-02-13T15:23:13.787Z,6.50
2024-02-13T15:25:41.994Z,6.90
2024-02-13T15:28:08.990Z,6.80
2024-02-13T15:30:38.816Z,7.00
2024-02-13T15:33:06.802Z,6.80
2024-02-13T15:35:42.773Z,6.60
2024-02-13T15:38:28.689Z,6.70
2024-02-13T15:41:14.326Z,6.60
2024-02-13T15:43:59.624Z,6.60
2024-02-13T15:46:45.277Z,6.70
2024-02-13T15:49:16.446Z,6.60
2024-02-13T15:51:45.479Z,6.80
2024-02-13T15:54:12.659Z,7.60
2024-02-13T15:56:46.970Z,6.60
2024-02-13T15:59:13.829Z,6.60
2024-02-13T16:01:40.629Z,6.60
2024-02-13T16:04:10.987Z,6.70
2024-02-13T16:06:38.776Z,6.90
2024-02-13T16:09:05.795Z,6.50
2024-02-13T16:11:32.921Z,6.50
2024-02-13T16:14:01.048Z,6.40
2024-02-13T16:16:28.021Z,6.40
2024-02-13T16:21:24.036Z,6.60
2024-02-13T16:31:13.181Z,6.60
2024-02-13T16:33:40.156Z,6.50
2024-02-13T16:36:07.510Z,6.20
2024-02-13T16:38:34.387Z,6.50
2024-02-13T16:41:01.240Z,6.40
2024-02-13T16:43:31.178Z,6.40
2024-02-13T16:50:54.065Z,6.50
2024-02-13T16:55:49.960Z,6.30
2024-02-13T16:58:18.079Z,6.30
2024-02-13T17:00:45.204Z,6.30
2024-02-13T17:05:42.293Z,6.30
2024-02-13T17:08:10.737Z,6.30
2024-02-13T17:10:37.648Z,6.30
2024-02-13T17:13:05.262Z,6.40
2024-02-13T17:15:32.112Z,6.20
2024-02-13T17:17:59.392Z,6.50
2024-02-13T17:20:26.461Z,6.40
2024-02-13T17:22:56.400Z,6.40
2024-02-13T17:25:23.371Z,6.40
2024-02-13T17:27:50.166Z,6.40
2024-02-13T17:30:17.008Z,6.30
2024-02-13T17:32:45.686Z,6.60
2024-02-13T17:35:13.208Z,6.50
2024-02-13T17:37:40.399Z,6.40
2024-02-13T17:45:08.204Z,6.40
2024-02-13T17:50:07.065Z,6.30
2024-02-13T17:52:33.914Z,6.40
2024-02-13T17:57:28.468Z,6.40
2024-02-13T17:59:57.527Z,6.30
2024-02-13T18:02:24.892Z,6.40
2024-02-13T18:17:12.661Z,6.30
2024-02-13T18:19:39.692Z,6.20
2024-02-13T18:22:07.516Z,6.10
2024-02-13T18:24:34.578Z,6.10
2024-02-13T18:27:01.578Z,6.10
2024-02-13T18:29:28.649Z,6.10
2024-02-13T18:34:25.269Z,6.20
2024-02-13T18:36:52.118Z,6.20
2024-02-13T18:44:16.160Z,6.20
2024-02-13T18:46:43.485Z,6.40
2024-02-13T18:51:39.198Z,6.70
2024-02-13T18:54:06.153Z,6.30
2024-02-13T18:56:37.592Z,6.10
2024-02-13T19:03:59.850Z,7.40
2024-02-13T19:06:26.710Z,6.20
2024-02-13T19:11:20.950Z,6.10
2024-02-13T19:13:50.541Z,6.10
2024-02-13T19:16:17.425Z,6.10
2024-02-13T19:21:12.001Z,6.20
2024-02-13T19:23:38.863Z,6.20
2024-02-13T19:28:33.589Z,6.10
2024-02-13T19:31:00.764Z,6.10
2024-02-13T19:33:28.105Z,6.10
2024-02-13T19:35:55.049Z,6.10
2024-02-13T19:40:49.623Z,6.20
2024-02-13T19:43:16.836Z,6.30
2024-02-13T19:45:43.892Z,6.10
2024-02-13T19:48:11.442Z,6.10
2024-02-13T19:50:40.626Z,6.10
2024-02-13T19:53:10.476Z,6.10
2024-02-13T19:55:38.636Z,6.10
2024-02-13T20:03:04.014Z,6.20
2024-02-13T20:05:31.279Z,6.10
2024-02-13T20:07:59.498Z,6.10
2024-02-13T20:10:26.393Z,6.10
2024-02-13T20:15:22.228Z,6.10
2024-02-13T20:17:49.141Z,6.20
2024-02-13T20:20:16.556Z,6.00
2024-02-13T20:22:46.940Z,6.00
2024-02-13T20:25:14.523Z,6.10
2024-02-13T20:27:45.520Z,6.00
2024-02-13T20:30:16.601Z,6.00
2024-02-13T20:32:48.969Z,6.00
2024-02-13T20:37:44.083Z,6.00
2024-02-13T20:40:12.724Z,6.00
2024-02-13T20:42:41.734Z,6.30
2024-02-13T20:45:21.190Z,6.10
2024-02-13T20:47:53.191Z,6.00
2024-02-13T20:50:22.277Z,6.00
2024-02-13T20:52:49.270Z,5.90
2024-02-13T20:57:45.239Z,5.90
2024-02-13T21:00:15.546Z,6.00
2024-02-13T21:02:43.415Z,6.20
2024-02-13T21:07:38.337Z,6.00
2024-02-13T21:10:10.226Z,6.00
2024-02-13T21:15:05.710Z,5.90
2024-02-13T21:17:42.703Z,5.90
2024-02-13T21:20:17.943Z,5.90
2024-02-13T21:23:05.604Z,5.80
2024-02-13T21:25:34.112Z,5.90
2024-02-13T21:28:01.118Z,5.90
2024-02-13T21:30:30.214Z,5.90
2024-02-13T21:35:27.174Z,5.90
2024-02-13T21:37:54.031Z,5.80
2024-02-13T21:40:21.485Z,5.70
2024-02-13T21:42:49.307Z,6.00
2024-02-13T21:45:16.405Z,5.80
2024-02-13T21:47:45.533Z,6.00
2024-02-13T21:50:19.150Z,5.60
2024-02-13T21:52:45.971Z,5.80
2024-02-13T21:55:12.960Z,6.30
2024-02-13T21:57:39.764Z,5.80
2024-02-13T22:00:08.183Z,5.80
2024-02-13T22:02:35.501Z,5.50
2024-02-13T22:05:02.710Z,6.20
2024-02-13T22:07:29.485Z,5.80
2024-02-13T22:10:00.204Z,5.80
2024-02-13T22:12:27.816Z,5.90
2024-02-13T22:15:00.730Z,5.80
2024-02-13T22:17:28.173Z,5.80
2024-02-13T22:20:01.447Z,5.80
2024-02-13T22:22:28.412Z,5.80
2024-02-13T22:30:06.476Z,5.80
2024-02-13T22:32:35.511Z,5.80
2024-02-13T22:35:04.969Z,5.80
2024-02-13T22:37:31.983Z,5.80
2024-02-13T22:39:59.745Z,5.80
2024-02-13T22:42:26.777Z,5.90
2024-02-13T22:44:59.724Z,5.80
2024-02-13T22:47:27.962Z,5.70
2024-02-13T22:49:57.130Z,5.70
2024-02-13T22:52:24.257Z,5.70
2024-02-13T22:54:53.262Z,5.90
2024-02-13T22:57:20.343Z,5.80
2024-02-13T22:59:48.483Z,5.80
2024-02-13T23:07:19.981Z,5.70
2024-02-13T23:09:48.224Z,6.10
2024-02-13T23:12:15.279Z,5.90
2024-02-13T23:14:45.222Z,5.70
2024-02-13T23:17:12.227Z,5.70
2024-02-13T23:22:16.792Z,5.60
2024-02-13T23:24:44.777Z,6.40
2024-02-13T23:27:12.855Z,5.60
2024-02-13T23:29:40.381Z,5.60
2024-02-13T23:32:07.573Z,5.60
2024-02-13T23:34:34.569Z,5.60
2024-02-13T23:37:04.961Z,5.50
2024-02-13T23:39:33.813Z,5.60
2024-02-13T23:42:00.678Z,5.70
2024-02-13T23:44:27.831Z,5.70
2024-02-13T23:46:54.639Z,5.60
2024-02-13T23:49:22.734Z,5.40
2024-02-13T23:51:49.856Z,5.50
2024-02-13T23:54:18.192Z,5.60
2024-02-13T23:56:45.092Z,5.60
